createdAt,value
2018-09-09T00:00:37.396Z,66.54
2018-09-09T00:03:05.627Z,65.39
2018-09-09T00:05:33.889Z,66.41
2018-09-09T00:08:02.175Z,66.15
2018-09-09T00:10:30.428Z,66.12
2018-09-09T00:12:58.703Z,66.34
2018-09-09T00:15:26.928Z,66.38
2018-09-09T00:17:55.136Z,65.72
2018-09-09T00:20:23.361Z,65.22
2018-09-09T00:22:51.582Z,65.66
2018-09-09T00:25:19.812Z,65.55
2018-09-09T00:27:48.200Z,65.02
2018-09-09T00:30:16.484Z,65.52
2018-09-09T00:32:44.680Z,64.62
2018-09-09T00:35:13.010Z,64.93
2018-09-09T00:37:41.213Z,65.07
2018-09-09T00:40:09.559Z,65.90
2018-09-09T00:42:37.811Z,65.43
2018-09-09T00:45:06.388Z,65.51
2018-09-09T00:47:34.790Z,65.09
2018-09-09T00:50:08.588Z,66.03
2018-09-09T00:52:42.209Z,65.42
2018-09-09T00:55:10.820Z,65.86
2018-09-09T00:57:39.043Z,65.96
2018-09-09T01:00:07.258Z,65.05
2018-09-09T01:02:35.445Z,65.70
2018-09-09T01:05:03.740Z,66.46
2018-09-09T01:07:32.032Z,65.46
2018-09-09T01:10:00.280Z,66.19
2018-09-09T01:12:28.503Z,66.31
2018-09-09T01:14:56.689Z,65.71
2018-09-09T01:17:24.978Z,65.63
2018-09-09T01:19:53.266Z,65.52
2018-09-09T01:22:21.453Z,65.39
2018-09-09T01:24:49.669Z,66.31
2018-09-09T01:27:17.847Z,65.64
2018-09-09T01:29:46.118Z,64.89
2018-09-09T01:32:14.489Z,65.41
2018-09-09T01:34:42.806Z,64.38
2018-09-09T01:37:10.991Z,65.08
2018-09-09T01:39:39.178Z,64.16
2018-09-09T01:42:07.437Z,64.04
2018-09-09T01:44:36.171Z,65.01
2018-09-09T01:47:04.410Z,65.00
2018-09-09T01:49:32.594Z,64.11
2018-09-09T01:52:00.762Z,64.49
2018-09-09T01:54:28.953Z,64.74
2018-09-09T01:56:57.140Z,65.37
2018-09-09T01:59:25.317Z,65.63
2018-09-09T02:01:53.490Z,65.37
2018-09-09T02:04:21.667Z,65.30
2018-09-09T02:06:49.831Z,65.30
2018-09-09T02:09:18.047Z,64.75
2018-09-09T02:11:46.326Z,65.25
2018-09-09T02:14:14.539Z,65.25
2018-09-09T02:16:42.725Z,64.39
2018-09-09T02:19:10.914Z,65.31
2018-09-09T02:21:39.098Z,65.78
2018-09-09T02:24:07.279Z,65.38
2018-09-09T02:26:35.482Z,65.50
2018-09-09T02:29:03.720Z,65.56
2018-09-09T02:31:31.936Z,65.27
2018-09-09T02:34:00.231Z,64.63
2018-09-09T02:36:28.421Z,65.42
2018-09-09T02:38:56.636Z,65.68
2018-09-09T02:41:24.820Z,64.63
2018-09-09T02:43:53.067Z,65.31
2018-09-09T02:46:21.195Z,64.74
2018-09-09T02:48:49.419Z,65.44
2018-09-09T02:51:17.607Z,64.23
2018-09-09T02:53:45.804Z,65.09
2018-09-09T02:56:13.983Z,64.39
2018-09-09T02:58:42.188Z,64.54
2018-09-09T03:01:10.367Z,65.45
2018-09-09T03:03:38.564Z,64.82
2018-09-09T03:06:06.810Z,65.25
2018-09-09T03:08:35.046Z,64.31
2018-09-09T03:11:08.575Z,64.79
2018-09-09T03:13:36.862Z,64.52
2018-09-09T03:16:05.043Z,64.45
2018-09-09T03:18:33.253Z,65.29
2018-09-09T03:21:01.496Z,65.49
2018-09-09T03:23:30.204Z,64.80
2018-09-09T03:25:58.883Z,65.00
2018-09-09T03:28:27.106Z,65.81
2018-09-09T03:30:55.227Z,64.96
2018-09-09T03:33:23.469Z,65.09
2018-09-09T03:35:52.033Z,65.40
2018-09-09T03:38:20.538Z,64.58
2018-09-09T03:40:49.025Z,65.43
2018-09-09T03:43:17.244Z,64.80
2018-09-09T03:45:45.437Z,65.45
2018-09-09T03:48:13.704Z,64.28
2018-09-09T03:50:41.907Z,64.61
2018-09-09T03:53:10.118Z,64.69
2018-09-09T03:55:38.299Z,65.51
2018-09-09T03:58:06.480Z,64.57
2018-09-09T04:00:34.758Z,65.21
2018-09-09T04:03:02.916Z,64.92
2018-09-09T04:05:31.126Z,65.04
2018-09-09T04:07:59.341Z,64.86
2018-09-09T04:10:27.559Z,64.34
2018-09-09T04:12:55.906Z,64.31
2018-09-09T04:15:24.164Z,65.31
2018-09-09T04:17:52.322Z,64.50
2018-09-09T04:20:20.499Z,64.03
2018-09-09T04:22:48.775Z,64.93
2018-09-09T04:25:17.057Z,64.32
2018-09-09T04:27:45.225Z,64.45
2018-09-09T04:30:13.497Z,63.67
2018-09-09T04:32:41.668Z,63.54
2018-09-09T04:35:09.910Z,63.89
2018-09-09T04:37:38.128Z,63.99
2018-09-09T04:40:06.764Z,63.88
2018-09-09T04:42:34.937Z,63.79
2018-09-09T04:45:03.152Z,64.27
2018-09-09T04:47:31.336Z,63.96
2018-09-09T04:49:59.631Z,63.97
2018-09-09T04:52:27.808Z,63.52
2018-09-09T04:54:55.989Z,63.90
2018-09-09T04:57:24.369Z,62.75
2018-09-09T04:59:52.592Z,63.60
2018-09-09T05:02:20.813Z,63.99
2018-09-09T05:04:49.000Z,64.74
2018-09-09T05:07:17.180Z,64.37
2018-09-09T05:09:45.346Z,64.63
2018-09-09T05:12:13.528Z,64.11
2018-09-09T05:14:41.764Z,63.77
2018-09-09T05:17:10.039Z,63.46
2018-09-09T05:19:38.214Z,64.45
2018-09-09T05:22:06.430Z,63.65
2018-09-09T05:24:34.627Z,64.66
2018-09-09T05:27:02.877Z,64.21
2018-09-09T05:29:31.168Z,64.30
2018-09-09T05:31:59.425Z,64.41
2018-09-09T05:34:27.623Z,63.58
2018-09-09T05:36:55.841Z,64.59
2018-09-09T05:39:24.038Z,64.20
2018-09-09T05:41:52.227Z,64.89
2018-09-09T05:44:20.479Z,63.85
2018-09-09T05:46:48.675Z,63.62
2018-09-09T05:49:16.947Z,64.22
2018-09-09T05:51:45.209Z,64.48
2018-09-09T05:54:13.391Z,64.35
2018-09-09T05:56:41.643Z,63.57
2018-09-09T05:59:09.858Z,63.44
2018-09-09T06:01:38.107Z,63.74
2018-09-09T06:04:06.387Z,63.23
2018-09-09T06:06:34.579Z,63.55
2018-09-09T06:09:02.913Z,64.23
2018-09-09T06:11:31.167Z,64.64
2018-09-09T06:13:59.411Z,63.99
2018-09-09T06:16:27.692Z,64.04
2018-09-09T06:18:55.892Z,64.12
2018-09-09T06:21:24.126Z,64.24
2018-09-09T06:23:52.359Z,64.50
2018-09-09T06:26:20.595Z,63.99
2018-09-09T06:28:48.891Z,64.19
2018-09-09T06:31:17.212Z,64.99
2018-09-09T06:33:45.640Z,63.87
2018-09-09T06:36:13.744Z,64.50
2018-09-09T06:38:41.942Z,64.03
2018-09-09T06:41:10.310Z,63.82
2018-09-09T06:43:38.642Z,63.85
2018-09-09T06:46:06.811Z,63.78
2018-09-09T06:48:35.050Z,65.06
2018-09-09T06:51:03.467Z,64.80
2018-09-09T06:53:31.690Z,64.97
2018-09-09T06:55:59.910Z,64.26
2018-09-09T06:58:28.090Z,64.94
2018-09-09T07:00:56.243Z,64.76
2018-09-09T07:03:24.426Z,64.91
2018-09-09T07:05:53.072Z,63.68
2018-09-09T07:08:21.515Z,64.03
2018-09-09T07:10:49.869Z,64.97
2018-09-09T07:13:17.975Z,65.14
2018-09-09T07:15:46.243Z,64.41
2018-09-09T07:18:14.434Z,64.96
2018-09-09T07:20:42.652Z,64.84
2018-09-09T07:23:10.980Z,64.53
2018-09-09T07:25:39.187Z,64.79
2018-09-09T07:28:07.407Z,63.84
2018-09-09T07:30:35.572Z,64.12
2018-09-09T07:33:03.759Z,63.51
2018-09-09T07:35:32.032Z,64.41
2018-09-09T07:38:00.211Z,63.94
2018-09-09T07:40:28.428Z,63.35
2018-09-09T07:42:56.626Z,64.13
2018-09-09T07:45:24.827Z,63.99
2018-09-09T07:47:52.999Z,64.27
2018-09-09T07:50:27.932Z,63.43
2018-09-09T07:52:56.140Z,63.73
2018-09-09T07:55:24.431Z,63.86
2018-09-09T07:57:52.638Z,63.64
2018-09-09T08:00:20.854Z,64.20
2018-09-09T08:02:49.054Z,63.43
2018-09-09T08:05:17.306Z,63.51
2018-09-09T08:07:45.570Z,63.34
2018-09-09T08:10:13.838Z,64.39
2018-09-09T08:12:42.050Z,62.91
2018-09-09T08:15:10.258Z,63.42
2018-09-09T08:17:38.632Z,62.96
2018-09-09T08:20:06.840Z,64.11
2018-09-09T08:22:35.079Z,63.41
2018-09-09T08:25:03.250Z,61.54
2018-09-09T08:27:31.452Z,61.54
2018-09-09T08:29:59.710Z,61.70
2018-09-09T08:32:27.933Z,61.49
2018-09-09T08:34:56.164Z,61.50
2018-09-09T08:37:24.321Z,59.71
2018-09-09T08:39:52.491Z,60.99
2018-09-09T08:42:20.725Z,60.55
2018-09-09T08:44:48.976Z,59.77
2018-09-09T08:47:17.273Z,60.30
2018-09-09T08:49:45.452Z,61.50
2018-09-09T08:52:13.729Z,61.80
2018-09-09T08:54:41.870Z,60.85
2018-09-09T08:57:10.099Z,60.18
2018-09-09T08:59:38.307Z,59.61
2018-09-09T09:02:06.755Z,59.44
2018-09-09T09:04:35.371Z,59.33
2018-09-09T09:07:03.855Z,59.10
2018-09-09T09:09:32.061Z,59.57
2018-09-09T09:12:04.544Z,59.82
2018-09-09T09:14:32.749Z,60.47
2018-09-09T09:17:00.909Z,59.05
2018-09-09T09:19:29.120Z,57.98
2018-09-09T09:21:57.280Z,58.51
2018-09-09T09:24:25.472Z,57.10
2018-09-09T09:26:53.701Z,56.43
2018-09-09T09:29:21.851Z,55.79
2018-09-09T09:31:50.108Z,56.08
2018-09-09T09:34:18.293Z,55.73
2018-09-09T09:36:46.475Z,56.48
2018-09-09T09:39:14.691Z,56.02
2018-09-09T09:41:42.959Z,55.80
2018-09-09T09:44:11.261Z,56.33
2018-09-09T09:46:39.451Z,55.58
2018-09-09T09:49:07.627Z,55.42
2018-09-09T09:51:35.790Z,56.30
2018-09-09T09:54:04.023Z,55.21
2018-09-09T09:56:32.288Z,55.42
2018-09-09T09:59:00.588Z,55.52
2018-09-09T10:01:28.739Z,55.61
2018-09-09T10:03:56.972Z,55.47
2018-09-09T10:06:25.248Z,55.10
2018-09-09T10:08:53.411Z,54.67
2018-09-09T10:11:21.558Z,54.12
2018-09-09T10:13:49.747Z,53.19
2018-09-09T10:16:17.923Z,53.69
2018-09-09T10:18:46.095Z,52.79
2018-09-09T10:21:14.314Z,51.71
2018-09-09T10:23:42.492Z,50.97
2018-09-09T10:26:11.327Z,50.83
2018-09-09T10:28:39.524Z,52.24
2018-09-09T10:31:07.905Z,50.96
2018-09-09T10:33:36.119Z,50.30
2018-09-09T10:36:04.345Z,48.54
2018-09-09T10:38:32.529Z,48.59
2018-09-09T10:41:00.791Z,48.80
2018-09-09T10:43:28.963Z,50.43
2018-09-09T10:45:57.156Z,46.65
2018-09-09T10:48:25.387Z,46.29
2018-09-09T10:50:54.573Z,45.83
2018-09-09T10:53:22.734Z,46.88
2018-09-09T10:55:50.932Z,46.97
2018-09-09T10:58:19.121Z,47.32
2018-09-09T11:00:47.271Z,48.40
2018-09-09T11:03:15.443Z,47.41
2018-09-09T11:05:43.655Z,47.66
2018-09-09T11:08:14.221Z,48.92
2018-09-09T11:10:42.479Z,48.89
2018-09-09T11:13:10.724Z,49.20
2018-09-09T11:15:39.093Z,48.54
2018-09-09T11:18:07.312Z,48.71
2018-09-09T11:20:35.528Z,49.56
2018-09-09T11:23:03.701Z,48.87
2018-09-09T11:25:31.913Z,49.72
2018-09-09T11:28:00.088Z,46.74
2018-09-09T11:30:28.271Z,48.21
2018-09-09T11:32:56.461Z,45.38
2018-09-09T11:35:24.624Z,45.54
2018-09-09T11:37:52.883Z,45.63
2018-09-09T11:40:21.062Z,45.28
2018-09-09T11:42:49.337Z,45.51
2018-09-09T11:45:17.512Z,46.02
2018-09-09T11:47:45.764Z,43.93
2018-09-09T11:50:13.979Z,43.20
2018-09-09T11:52:42.199Z,44.56
2018-09-09T11:55:10.389Z,44.35
2018-09-09T11:57:38.592Z,45.74
2018-09-09T12:00:07.119Z,46.01
2018-09-09T12:02:35.646Z,45.84
2018-09-09T12:05:03.851Z,44.54
2018-09-09T12:07:32.074Z,42.99
2018-09-09T12:10:00.211Z,42.02
2018-09-09T12:12:28.671Z,43.17
2018-09-09T12:14:57.887Z,42.87
2018-09-09T12:17:26.191Z,42.42
2018-09-09T12:19:54.875Z,42.87
2018-09-09T12:22:23.095Z,40.99
2018-09-09T12:24:53.340Z,38.36
2018-09-09T12:27:21.867Z,38.59
2018-09-09T12:29:50.048Z,38.60
2018-09-09T12:32:18.332Z,38.13
2018-09-09T12:34:46.460Z,38.59
2018-09-09T12:37:14.671Z,39.96
2018-09-09T12:39:42.859Z,39.66
2018-09-09T12:42:11.051Z,39.50
2018-09-09T12:44:44.678Z,38.55
2018-09-09T12:47:18.221Z,37.16
2018-09-09T12:49:46.335Z,37.07
2018-09-09T12:52:14.610Z,37.14
2018-09-09T12:54:42.839Z,37.57
2018-09-09T12:57:11.098Z,38.96
2018-09-09T12:59:39.351Z,39.48
2018-09-09T13:03:10.678Z,39.55
2018-09-09T13:05:38.889Z,39.80
2018-09-09T13:08:07.231Z,39.79
2018-09-09T13:10:35.424Z,40.51
2018-09-09T13:13:09.011Z,40.45
2018-09-09T13:15:37.543Z,40.59
2018-09-09T13:18:05.867Z,41.71
2018-09-09T13:20:34.067Z,42.26
2018-09-09T13:23:02.332Z,43.14
2018-09-09T13:25:30.559Z,41.94
2018-09-09T13:27:58.778Z,42.61
2018-09-09T13:30:26.958Z,42.51
2018-09-09T13:32:55.187Z,43.24
2018-09-09T13:35:23.384Z,43.88
2018-09-09T13:37:51.567Z,42.80
2018-09-09T13:40:19.779Z,43.60
2018-09-09T13:42:47.971Z,42.49
2018-09-09T13:45:16.208Z,44.06
2018-09-09T13:47:44.651Z,44.46
2018-09-09T13:50:12.830Z,43.62
2018-09-09T13:52:41.038Z,42.42
2018-09-09T13:55:09.276Z,40.53
2018-09-09T13:57:37.485Z,41.83
2018-09-09T14:00:05.723Z,40.91
2018-09-09T14:02:33.920Z,42.27
2018-09-09T14:05:02.097Z,43.31
2018-09-09T14:07:30.303Z,44.03
2018-09-09T14:09:58.513Z,43.92
2018-09-09T14:12:26.712Z,45.41
2018-09-09T14:14:54.935Z,43.63
2018-09-09T14:17:23.136Z,42.02
2018-09-09T14:19:51.311Z,42.54
2018-09-09T14:22:19.526Z,43.28
2018-09-09T14:24:47.715Z,42.01
2018-09-09T14:27:15.899Z,42.85
2018-09-09T14:29:44.070Z,41.92
2018-09-09T14:32:12.263Z,41.38
2018-09-09T14:34:40.527Z,39.32
2018-09-09T14:37:08.787Z,40.09
2018-09-09T14:39:37.133Z,40.21
2018-09-09T14:42:05.354Z,40.83
2018-09-09T14:44:33.541Z,41.91
2018-09-09T14:47:01.715Z,42.67
2018-09-09T14:49:29.891Z,41.82
2018-09-09T14:51:58.236Z,43.48
2018-09-09T14:54:26.444Z,43.16
2018-09-09T14:56:54.678Z,42.85
2018-09-09T14:59:22.855Z,42.32
2018-09-09T15:01:51.076Z,39.14
2018-09-09T15:04:19.291Z,40.00
2018-09-09T15:06:47.517Z,39.98
2018-09-09T15:09:15.661Z,40.12
2018-09-09T15:11:43.867Z,40.94
2018-09-09T15:14:12.126Z,40.62
2018-09-09T15:16:40.367Z,40.88
2018-09-09T15:19:08.506Z,42.32
2018-09-09T15:21:36.691Z,42.73
2018-09-09T15:24:04.899Z,42.91
2018-09-09T15:26:33.119Z,43.26
2018-09-09T15:29:01.323Z,42.24
2018-09-09T15:31:29.519Z,42.65
2018-09-09T15:33:57.671Z,42.31
2018-09-09T15:36:25.871Z,41.55
2018-09-09T15:38:54.123Z,41.09
2018-09-09T15:41:22.396Z,41.03
2018-09-09T15:43:50.580Z,41.49
2018-09-09T15:46:18.791Z,42.62
2018-09-09T15:48:46.978Z,44.51
2018-09-09T15:51:15.206Z,45.51
2018-09-09T15:53:43.516Z,43.12
2018-09-09T15:56:11.689Z,42.46
2018-09-09T15:58:39.919Z,44.65
2018-09-09T16:01:08.167Z,43.32
2018-09-09T16:03:36.399Z,42.86
2018-09-09T16:06:04.623Z,43.28
2018-09-09T16:08:32.831Z,43.71
2018-09-09T16:11:01.011Z,43.50
2018-09-09T16:13:29.272Z,44.34
2018-09-09T16:15:57.474Z,44.93
2018-09-09T16:18:25.719Z,44.98
2018-09-09T16:20:53.885Z,43.41
2018-09-09T16:23:22.193Z,41.21
2018-09-09T16:25:50.428Z,42.18
2018-09-09T16:28:18.715Z,43.30
2018-09-09T16:30:46.961Z,42.77
2018-09-09T16:33:15.083Z,42.93
2018-09-09T16:35:43.271Z,42.47
2018-09-09T16:38:11.587Z,44.21
2018-09-09T16:40:39.766Z,43.86
2018-09-09T16:43:08.043Z,43.37
2018-09-09T16:45:36.435Z,42.95
2018-09-09T16:48:04.657Z,42.72
2018-09-09T16:50:32.871Z,42.50
2018-09-09T16:53:01.040Z,43.56
2018-09-09T16:55:29.235Z,44.50
2018-09-09T16:57:57.430Z,46.11
2018-09-09T17:00:25.645Z,46.65
2018-09-09T17:02:55.674Z,47.30
2018-09-09T17:05:23.911Z,49.12
2018-09-09T17:07:52.149Z,48.88
2018-09-09T17:10:20.302Z,48.03
2018-09-09T17:12:48.532Z,48.22
2018-09-09T17:15:16.707Z,48.78
2018-09-09T17:17:44.891Z,48.91
2018-09-09T17:20:13.106Z,48.18
2018-09-09T17:22:41.265Z,49.29
2018-09-09T17:25:09.489Z,50.78
2018-09-09T17:27:37.679Z,50.13
2018-09-09T17:30:05.930Z,51.77
2018-09-09T17:32:34.179Z,52.61
2018-09-09T17:35:02.344Z,53.82
2018-09-09T17:37:30.542Z,54.57
2018-09-09T17:39:58.787Z,53.87
2018-09-09T17:42:26.983Z,55.56
2018-09-09T17:44:55.231Z,55.21
2018-09-09T17:47:23.438Z,55.51
2018-09-09T17:49:51.639Z,54.78
2018-09-09T17:52:19.832Z,55.46
2018-09-09T17:54:47.994Z,56.58
2018-09-09T17:57:16.198Z,57.71
2018-09-09T17:59:44.378Z,56.95
2018-09-09T18:02:12.625Z,56.06
2018-09-09T18:04:40.899Z,56.46
2018-09-09T18:07:09.268Z,55.83
2018-09-09T18:09:37.503Z,56.69
2018-09-09T18:12:06.055Z,57.19
2018-09-09T18:14:34.326Z,56.43
2018-09-09T18:17:02.519Z,56.24
2018-09-09T18:19:30.715Z,56.32
2018-09-09T18:21:58.871Z,57.10
2018-09-09T18:24:27.107Z,57.71
2018-09-09T18:26:55.302Z,57.63
2018-09-09T18:29:23.591Z,58.03
2018-09-09T18:31:52.739Z,57.55
2018-09-09T18:34:21.017Z,58.00
2018-09-09T18:36:49.228Z,57.98
2018-09-09T18:39:17.466Z,58.39
2018-09-09T18:41:45.701Z,58.90
2018-09-09T18:44:13.912Z,58.16
2018-09-09T18:46:42.113Z,59.70
2018-09-09T18:49:16.982Z,59.77
2018-09-09T18:51:45.152Z,59.23
2018-09-09T18:54:13.335Z,59.01
2018-09-09T18:56:41.654Z,59.21
2018-09-09T18:59:10.116Z,58.75
2018-09-09T19:01:38.364Z,58.95
2018-09-09T19:04:06.856Z,59.52
2018-09-09T19:06:35.181Z,59.73
2018-09-09T19:09:03.630Z,60.00
2018-09-09T19:11:32.153Z,59.88
2018-09-09T19:14:00.562Z,60.56
2018-09-09T19:16:28.727Z,60.06
2018-09-09T19:18:57.017Z,59.13
2018-09-09T19:21:25.658Z,60.50
2018-09-09T19:23:53.802Z,60.42
2018-09-09T19:26:22.109Z,60.10
2018-09-09T19:28:50.501Z,60.51
2018-09-09T19:31:18.690Z,60.32
2018-09-09T19:33:47.363Z,61.14
2018-09-09T19:36:15.519Z,60.21
2018-09-09T19:38:44.048Z,61.00
2018-09-09T19:41:12.276Z,60.79
2018-09-09T19:43:40.799Z,61.36
2018-09-09T19:46:09.371Z,60.99
2018-09-09T19:48:37.855Z,61.44
2018-09-09T19:51:06.466Z,60.59
2018-09-09T19:53:34.704Z,60.51
2018-09-09T19:56:02.888Z,60.63
2018-09-09T19:58:31.087Z,60.96
2018-09-09T20:01:00.205Z,61.54
2018-09-09T20:03:28.512Z,61.10
2018-09-09T20:05:56.836Z,61.64
2018-09-09T20:08:25.152Z,61.66
2018-09-09T20:10:53.776Z,61.34
2018-09-09T20:13:21.941Z,61.32
2018-09-09T20:15:50.257Z,61.52
2018-09-09T20:18:18.378Z,61.98
2018-09-09T20:20:46.583Z,62.41
2018-09-09T20:23:15.095Z,63.04
2018-09-09T20:25:43.317Z,62.09
2018-09-09T20:28:11.506Z,62.58
2018-09-09T20:30:40.256Z,62.85
2018-09-09T20:33:08.695Z,63.76
2018-09-09T20:35:37.028Z,62.96
2018-09-09T20:38:05.351Z,62.94
2018-09-09T20:40:33.549Z,63.36
2018-09-09T20:43:01.827Z,63.43
2018-09-09T20:45:30.107Z,61.94
2018-09-09T20:47:58.343Z,62.02
2018-09-09T20:50:26.539Z,62.56
2018-09-09T20:52:54.722Z,63.73
2018-09-09T20:55:22.947Z,62.98
2018-09-09T20:57:51.166Z,63.09
2018-09-09T21:00:19.378Z,62.85
2018-09-09T21:02:47.611Z,63.60
2018-09-09T21:05:16.059Z,63.92
2018-09-09T21:07:44.268Z,63.18
2018-09-09T21:10:12.618Z,63.54
2018-09-09T21:12:41.014Z,63.25
2018-09-09T21:15:09.277Z,63.46
2018-09-09T21:17:37.849Z,63.04
2018-09-09T21:20:07.026Z,63.17
2018-09-09T21:22:35.201Z,63.74
2018-09-09T21:25:03.595Z,63.94
2018-09-09T21:27:31.867Z,63.37
2018-09-09T21:30:00.199Z,63.52
2018-09-09T21:32:28.691Z,63.42
2018-09-09T21:34:56.907Z,63.31
2018-09-09T21:37:25.126Z,63.71
2018-09-09T21:39:53.384Z,63.51
2018-09-09T21:42:21.558Z,64.25
2018-09-09T21:44:49.875Z,63.96
2018-09-09T21:47:18.315Z,63.33
2018-09-09T21:49:46.507Z,63.67
2018-09-09T21:52:14.720Z,64.39
2018-09-09T21:54:43.094Z,63.57
2018-09-09T21:57:11.402Z,63.31
2018-09-09T21:59:39.674Z,64.24
2018-09-09T22:02:08.885Z,63.24
2018-09-09T22:04:37.770Z,63.63
2018-09-09T22:07:10.167Z,63.28
2018-09-09T22:09:38.920Z,63.75
2018-09-09T22:12:08.323Z,62.86
2018-09-09T22:14:36.518Z,62.68
2018-09-09T22:17:05.174Z,63.43
2018-09-09T22:19:33.575Z,62.76
2018-09-09T22:22:01.910Z,63.10
2018-09-09T22:24:30.153Z,63.31
2018-09-09T22:26:58.490Z,62.78
2018-09-09T22:29:26.688Z,62.24
2018-09-09T22:31:54.867Z,62.82
2018-09-09T22:34:23.150Z,62.57
2018-09-09T22:36:51.519Z,62.69
2018-09-09T22:39:19.716Z,61.23
2018-09-09T22:41:47.991Z,62.37
2018-09-09T22:44:16.218Z,61.72
2018-09-09T22:46:44.442Z,61.86
2018-09-09T22:49:12.717Z,62.09
2018-09-09T22:51:40.901Z,62.46
2018-09-09T22:54:09.149Z,61.09
2018-09-09T22:56:37.376Z,61.20
2018-09-09T22:59:05.957Z,60.95
2018-09-09T23:01:34.158Z,61.59
2018-09-09T23:04:02.362Z,61.25
2018-09-09T23:06:30.577Z,60.66
2018-09-09T23:08:58.839Z,61.51
2018-09-09T23:11:27.031Z,61.67
2018-09-09T23:13:55.222Z,61.57
2018-09-09T23:16:23.430Z,60.87
2018-09-09T23:18:51.670Z,60.81
2018-09-09T23:21:19.879Z,60.85
2018-09-09T23:23:48.087Z,61.67
2018-09-09T23:26:16.315Z,61.99
2018-09-09T23:28:44.519Z,61.56
2018-09-09T23:31:13.531Z,61.34
2018-09-09T23:33:41.726Z,61.57
2018-09-09T23:36:09.953Z,61.33
2018-09-09T23:38:38.143Z,60.79
2018-09-09T23:41:06.338Z,60.99
2018-09-09T23:43:34.527Z,61.79
2018-09-09T23:46:02.732Z,61.69
2018-09-09T23:48:30.979Z,61.61
2018-09-09T23:50:59.176Z,61.49
2018-09-09T23:53:27.359Z,61.74
2018-09-09T23:55:55.515Z,60.94
2018-09-09T23:58:23.686Z,61.19
